Time;durP1;ratioP1;P1;durP2;ratioP2;P2;SDS_P1;SDS_P2;PMS_P1;PMS_P2;Temp;Humidity;BMP_temperature;BMP_pressure;BME280_temperature;BME280_humidity;BME280_pressure;Samples;Min_cycle;Max_cycle;Signal;HPM_P1;HPM_P2
2021/12/22 00:01:24;;;;;;;4.40;2.55;;;-1.40;99.90;;;;;;5110433;28;20204;-67
2021/12/22 00:03:50;;;;;;;4.43;2.75;;;-1.40;99.90;;;;;;5100780;28;20315;-66
2021/12/22 00:06:19;;;;;;;3.60;3.33;;;-1.40;99.90;;;;;;5109651;28;20203;-67
2021/12/22 00:08:48;;;;;;;2.00;1.90;;;-1.50;99.90;;;;;;5107345;28;20462;-67
2021/12/22 00:11:15;;;;;;;2.40;2.30;;;-1.40;99.90;;;;;;5107116;28;20242;-66
2021/12/22 00:13:41;;;;;;;4.13;3.08;;;-1.50;99.90;;;;;;5103381;27;20318;-66
2021/12/22 00:16:08;;;;;;;2.85;2.65;;;-1.50;99.90;;;;;;5108764;27;20233;-66
2021/12/22 00:18:36;;;;;;;3.08;2.22;;;-1.50;99.90;;;;;;5109136;28;20207;-66
2021/12/22 00:21:02;;;;;;;4.10;2.90;;;-1.50;99.90;;;;;;5110472;28;20200;-67
2021/12/22 00:23:29;;;;;;;3.50;2.45;;;-1.60;99.90;;;;;;5108206;28;20274;-67
2021/12/22 00:25:58;;;;;;;3.88;3.47;;;-1.50;99.90;;;;;;5113184;27;20569;-67
2021/12/22 00:28:24;;;;;;;1.77;1.67;;;-1.50;99.90;;;;;;5108044;27;20337;-72
2021/12/22 00:30:52;;;;;;;2.40;2.20;;;-1.50;99.90;;;;;;5097774;28;20707;-66
2021/12/22 00:33:19;;;;;;;2.30;2.10;;;-1.50;99.90;;;;;;5102669;28;20206;-66
2021/12/22 00:35:46;;;;;;;4.18;3.88;;;-1.50;99.90;;;;;;5120469;27;20314;-67
2021/12/22 00:38:16;;;;;;;3.42;3.13;;;-1.50;99.90;;;;;;5123891;28;20218;-68
2021/12/22 00:40:43;;;;;;;2.03;1.65;;;-1.50;99.90;;;;;;5113913;27;20738;-67
2021/12/22 00:43:12;;;;;;;1.88;1.77;;;-1.60;99.90;;;;;;5113366;28;20202;-67
2021/12/22 00:45:39;;;;;;;3.25;3.00;;;-1.60;99.90;;;;;;5097957;27;20228;-67
2021/12/22 00:48:08;;;;;;;2.92;2.15;;;-1.60;99.90;;;;;;5101185;27;20204;-67
2021/12/22 00:50:36;;;;;;;2.83;2.42;;;-1.60;99.90;;;;;;5105943;27;20730;-67
2021/12/22 00:53:04;;;;;;;2.35;2.15;;;-1.60;99.90;;;;;;5111286;27;20200;-66
2021/12/22 00:55:31;;;;;;;2.60;2.40;;;-1.60;99.90;;;;;;5119466;27;20262;-67
2021/12/22 00:57:57;;;;;;;3.22;2.10;;;-1.60;99.90;;;;;;5121653;28;20210;-67
2021/12/22 01:00:27;;;;;;;3.38;2.45;;;-1.60;99.90;;;;;;5121280;27;20207;-67
2021/12/22 01:02:54;;;;;;;3.45;2.60;;;-1.60;99.90;;;;;;5110797;28;20210;-67
2021/12/22 01:05:22;;;;;;;2.50;1.70;;;-1.70;99.90;;;;;;5105745;27;20246;-66
2021/12/22 01:07:50;;;;;;;2.80;1.98;;;-1.70;99.90;;;;;;5110257;28;20200;-67
2021/12/22 01:10:18;;;;;;;2.55;2.35;;;-1.70;99.90;;;;;;5107447;27;20226;-67
2021/12/22 01:12:45;;;;;;;2.80;2.60;;;-1.70;99.90;;;;;;5101418;28;20629;-66
2021/12/22 01:15:12;;;;;;;1.45;1.25;;;-1.70;99.90;;;;;;5100185;27;21541;-66
2021/12/22 01:17:44;;;;;;;3.05;2.83;;;-1.70;99.90;;;;;;5108668;28;20217;-66
2021/12/22 01:20:18;;;;;;;2.03;1.92;;;-1.70;99.90;;;;;;5106042;27;20199;-66
2021/12/22 01:22:49;;;;;;;2.67;2.45;;;-1.70;99.90;;;;;;5099752;28;20201;-66
2021/12/22 01:25:18;;;;;;;2.30;1.50;;;-1.70;99.90;;;;;;5109242;28;20230;-66
2021/12/22 01:27:45;;;;;;;2.20;2.10;;;-1.70;99.90;;;;;;5098241;28;20290;-65
2021/12/22 01:30:15;;;;;;;5.97;2.53;;;-1.70;99.90;;;;;;5105088;27;20229;-66
2021/12/22 01:32:43;;;;;;;3.85;3.60;;;-1.70;99.90;;;;;;5090536;28;20202;-67
2021/12/22 01:35:12;;;;;;;6.90;2.70;;;-1.70;99.90;;;;;;5096334;27;20218;-66
2021/12/22 01:37:39;;;;;;;4.30;2.88;;;-1.70;99.90;;;;;;5103480;27;20273;-66
2021/12/22 01:40:09;;;;;;;3.80;2.80;;;-1.80;99.90;;;;;;5104961;28;20292;-66
2021/12/22 01:42:36;;;;;;;2.35;2.15;;;-1.80;99.90;;;;;;5103165;28;20202;-66
2021/12/22 01:45:27;;;;;;;2.72;2.53;;;-1.80;99.90;;;;;;5101466;28;20362;-66
2021/12/22 01:50:42;;;;;;;1.80;1.70;;;-1.80;99.90;;;;;;5097453;28;20316;-66
2021/12/22 01:53:40;;;;;;;2.80;2.30;;;-1.80;99.90;;;;;;5105530;27;20252;-67
2021/12/22 01:56:17;;;;;;;1.73;1.63;;;-1.80;99.90;;;;;;5096151;27;20199;-66
2021/12/22 01:58:46;;;;;;;2.67;2.47;;;-1.80;99.90;;;;;;5108087;27;20676;-66
2021/12/22 02:01:15;;;;;;;3.08;2.88;;;-1.80;99.90;;;;;;5094320;28;20562;-67
2021/12/22 02:03:42;;;;;;;3.55;3.05;;;-1.90;99.90;;;;;;5102592;28;20224;-68
2021/12/22 02:06:10;;;;;;;3.17;2.38;;;-1.90;99.90;;;;;;5107648;27;20199;-68
2021/12/22 02:08:38;;;;;;;3.20;2.03;;;-1.90;99.90;;;;;;5099502;28;20677;-68
2021/12/22 02:11:06;;;;;;;5.03;1.85;;;-2.00;99.90;;;;;;5110933;28;20256;-68
2021/12/22 02:13:37;;;;;;;1.83;1.80;;;-2.00;99.90;;;;;;5119580;27;20220;-65
2021/12/22 02:16:07;;;;;;;2.05;1.95;;;-2.00;99.90;;;;;;5104201;27;20350;-67
2021/12/22 02:18:36;;;;;;;3.13;2.42;;;-2.10;99.90;;;;;;5117637;28;20200;-67
2021/12/22 02:21:05;;;;;;;2.53;2.42;;;-2.00;99.90;;;;;;5108012;28;20229;-67
2021/12/22 02:23:33;;;;;;;3.00;2.53;;;-2.00;99.90;;;;;;5104534;28;20199;-67
2021/12/22 02:26:07;;;;;;;2.55;1.85;;;-2.00;99.90;;;;;;5096580;28;20201;-68
2021/12/22 02:28:36;;;;;;;2.67;2.45;;;-2.00;99.90;;;;;;5099325;27;20202;-67
2021/12/22 02:31:04;;;;;;;2.47;2.15;;;-2.00;99.90;;;;;;5088730;28;20223;-66
2021/12/22 02:33:36;;;;;;;4.95;2.95;;;-2.00;99.90;;;;;;5091900;27;20203;-66
2021/12/22 02:36:19;;;;;;;2.92;2.42;;;-2.00;99.90;;;;;;5096220;28;20283;-65
2021/12/22 02:38:49;;;;;;;2.30;2.17;;;-2.10;99.90;;;;;;5097599;28;20415;-66
2021/12/22 02:41:18;;;;;;;2.35;2.15;;;-2.10;99.90;;;;;;5096125;28;20309;-66
2021/12/22 02:43:48;;;;;;;2.10;1.90;;;-2.10;99.90;;;;;;5105104;28;20253;-68
2021/12/22 02:46:16;;;;;;;2.90;2.25;;;-2.10;99.90;;;;;;5105085;27;20227;-66
2021/12/22 02:48:44;;;;;;;2.25;2.05;;;-2.10;99.90;;;;;;5106600;28;20621;-68
2021/12/22 02:51:12;;;;;;;2.60;2.42;;;-2.10;99.90;;;;;;5098705;28;20289;-66
2021/12/22 02:53:43;;;;;;;8.93;3.35;;;-2.10;99.90;;;;;;5099668;28;20219;-66
2021/12/22 02:56:27;;;;;;;3.10;2.00;;;-2.10;99.90;;;;;;5097668;28;20489;-66
2021/12/22 02:59:03;;;;;;;2.05;1.95;;;-2.10;99.90;;;;;;5098266;28;20209;-66
2021/12/22 03:04:34;;;;;;;2.85;2.00;;;-2.10;99.90;;;;;;5062181;28;20716;-65
2021/12/22 03:07:07;;;;;;;3.05;2.45;;;-2.10;99.90;;;;;;5081591;28;20194;-66
2021/12/22 03:09:35;;;;;;;1.50;1.40;;;-2.10;99.90;;;;;;5099980;28;20206;-66
2021/12/22 03:12:04;;;;;;;2.22;2.13;;;-2.10;99.90;;;;;;5101137;28;20292;-65
2021/12/22 03:14:32;;;;;;;4.28;3.42;;;-2.10;99.90;;;;;;5093712;28;20278;-66
2021/12/22 03:17:00;;;;;;;2.60;2.50;;;-2.20;99.90;;;;;;5103381;28;20300;-66
2021/12/22 03:19:29;;;;;;;2.60;2.22;;;-2.20;99.90;;;;;;5087709;28;20214;-65
2021/12/22 03:22:01;;;;;;;5.47;3.35;;;-2.20;99.90;;;;;;5107142;28;20194;-66
2021/12/22 03:24:30;;;;;;;3.28;3.08;;;-2.10;99.90;;;;;;5096050;28;20767;-66
2021/12/22 03:27:00;;;;;;;6.10;2.67;;;-2.20;99.90;;;;;;5104208;28;20381;-66
2021/12/22 03:29:26;;;;;;;2.03;1.83;;;-2.20;99.90;;;;;;5105914;28;20715;-66
2021/12/22 03:31:53;;;;;;;3.65;1.60;;;-2.20;99.90;;;;;;5104667;28;20939;-66
2021/12/22 03:34:20;;;;;;;1.90;1.80;;;-2.20;99.90;;;;;;5106420;28;20232;-66
2021/12/22 03:36:47;;;;;;;2.50;2.10;;;-2.20;99.90;;;;;;5094383;28;20211;-66
2021/12/22 03:39:15;;;;;;;2.50;2.38;;;-2.20;99.90;;;;;;5100301;28;20210;-65
2021/12/22 03:41:45;;;;;;;1.77;1.67;;;-2.30;99.90;;;;;;5110068;27;20617;-65
2021/12/22 03:44:12;;;;;;;2.92;2.72;;;-2.30;99.90;;;;;;5109931;28;20226;-66
2021/12/22 03:46:39;;;;;;;3.58;2.78;;;-2.40;99.90;;;;;;5105366;28;20196;-66
2021/12/22 03:49:09;;;;;;;2.42;2.25;;;-2.40;99.90;;;;;;5111278;28;20214;-66
2021/12/22 03:51:36;;;;;;;1.88;1.77;;;-2.40;99.90;;;;;;5108451;27;20293;-68
2021/12/22 03:54:04;;;;;;;2.13;1.98;;;-2.30;99.90;;;;;;5112417;27;20319;-66
2021/12/22 03:56:30;;;;;;;2.03;1.88;;;-2.30;99.90;;;;;;5110150;27;20203;-65
2021/12/22 03:58:58;;;;;;;3.00;1.95;;;-2.30;99.90;;;;;;5102787;28;20207;-65
2021/12/22 04:01:25;;;;;;;2.35;2.15;;;-2.30;99.90;;;;;;5110842;27;20263;-66
2021/12/22 04:03:56;;;;;;;1.88;1.77;;;-2.30;99.90;;;;;;5124988;27;20287;-66
2021/12/22 04:06:23;;;;;;;1.77;1.67;;;-2.30;99.90;;;;;;5109861;28;20213;-65
2021/12/22 04:08:50;;;;;;;2.38;2.17;;;-2.30;99.90;;;;;;5111891;27;20205;-66
2021/12/22 04:11:16;;;;;;;3.47;3.17;;;-2.30;99.90;;;;;;5112545;27;20694;-68
2021/12/22 04:13:43;;;;;;;2.72;1.80;;;-2.30;99.90;;;;;;5112365;27;20277;-65
2021/12/22 04:16:11;;;;;;;1.40;1.30;;;-2.20;99.90;;;;;;5110851;28;20259;-65
2021/12/22 04:18:38;;;;;;;1.90;1.80;;;-2.30;99.90;;;;;;5110709;28;20202;-65
2021/12/22 04:21:04;;;;;;;3.35;2.75;;;-2.30;99.90;;;;;;5110673;27;20206;-67
2021/12/22 04:23:31;;;;;;;1.80;1.70;;;-2.30;99.90;;;;;;5110194;27;20219;-65
2021/12/22 04:25:58;;;;;;;2.45;2.25;;;-2.30;99.90;;;;;;5108351;28;20244;-67
2021/12/22 04:28:24;;;;;;;3.63;2.70;;;-2.30;99.90;;;;;;5104421;28;20218;-65
2021/12/22 04:30:51;;;;;;;2.28;2.08;;;-2.40;99.90;;;;;;5110615;27;20321;-67
2021/12/22 04:33:21;;;;;;;8.20;2.40;;;-2.40;99.90;;;;;;5097341;27;20200;-65
2021/12/22 04:35:47;;;;;;;1.77;1.67;;;-2.40;99.90;;;;;;5110572;28;20644;-66
2021/12/22 04:38:14;;;;;;;2.00;1.85;;;-2.40;99.90;;;;;;5109649;28;20199;-66
2021/12/22 04:40:41;;;;;;;1.77;1.65;;;-2.30;99.90;;;;;;5109334;27;20302;-65
2021/12/22 04:43:08;;;;;;;2.60;2.40;;;-2.30;99.90;;;;;;5100350;27;20206;-65
2021/12/22 04:45:34;;;;;;;3.80;2.75;;;-2.30;99.90;;;;;;5110126;28;20244;-66
2021/12/22 04:48:01;;;;;;;7.50;1.20;;;-2.30;99.90;;;;;;5109772;27;20202;-66
2021/12/22 04:50:31;;;;;;;2.28;2.08;;;-2.40;99.90;;;;;;5108291;28;20211;-65
2021/12/22 04:53:02;;;;;;;2.53;2.33;;;-2.40;99.90;;;;;;5107844;27;20225;-66
2021/12/22 04:55:29;;;;;;;1.50;1.40;;;-2.40;99.90;;;;;;5099992;28;20754;-66
2021/12/22 04:57:57;;;;;;;2.10;1.73;;;-2.50;99.90;;;;;;5105904;28;20653;-67
2021/12/22 05:00:26;;;;;;;2.95;2.65;;;-2.50;99.90;;;;;;5102785;28;20431;-66
2021/12/22 05:02:54;;;;;;;2.08;1.83;;;-2.50;99.90;;;;;;5101219;27;20458;-66
2021/12/22 05:05:21;;;;;;;1.20;1.20;;;-2.50;99.90;;;;;;5107704;27;20231;-66
2021/12/22 05:07:49;;;;;;;1.55;1.45;;;-2.50;99.90;;;;;;5116227;28;20593;-67
2021/12/22 05:10:17;;;;;;;2.63;2.42;;;-2.40;99.90;;;;;;5109277;28;20207;-66
2021/12/22 05:12:44;;;;;;;2.33;2.13;;;-2.40;99.90;;;;;;5112377;28;20285;-66
2021/12/22 05:15:11;;;;;;;1.30;1.27;;;-2.40;99.90;;;;;;5133799;27;20225;-66
2021/12/22 05:18:01;;;;;;;1.75;1.65;;;-2.30;99.90;;;;;;5131627;27;20218;-66
2021/12/22 05:20:27;;;;;;;2.15;2.05;;;-2.30;99.90;;;;;;5121723;27;20232;-66
2021/12/22 05:22:55;;;;;;;2.30;2.03;;;-2.20;99.90;;;;;;5117849;27;20253;-66
2021/12/22 05:25:21;;;;;;;4.60;4.20;;;-2.30;99.90;;;;;;5117981;28;20881;-66
2021/12/22 05:27:48;;;;;;;2.40;2.25;;;-2.20;99.90;;;;;;5109346;28;20209;-66
2021/12/22 05:30:15;;;;;;;11.05;3.10;;;-2.20;99.90;;;;;;5117048;27;20195;-67
2021/12/22 05:32:41;;;;;;;5.43;1.60;;;-2.20;99.90;;;;;;5129546;28;20213;-68
2021/12/22 05:35:10;;;;;;;2.70;2.50;;;-2.20;99.90;;;;;;5122274;28;20286;-66
2021/12/22 05:37:38;;;;;;;1.65;1.55;;;-2.20;99.90;;;;;;5112566;27;20406;-65
2021/12/22 05:40:08;;;;;;;2.22;2.13;;;-2.20;99.90;;;;;;5096294;28;20652;-65
2021/12/22 05:42:35;;;;;;;5.18;2.72;;;-2.20;99.90;;;;;;5097964;27;20199;-65
2021/12/22 05:45:02;;;;;;;4.85;2.25;;;-2.20;99.90;;;;;;5100343;27;20605;-65
2021/12/22 05:47:28;;;;;;;2.20;2.10;;;-2.20;99.90;;;;;;5098519;28;20210;-65
2021/12/22 05:49:55;;;;;;;2.20;2.10;;;-2.20;99.90;;;;;;5105963;28;20207;-65
2021/12/22 05:52:22;;;;;;;2.75;2.55;;;-2.20;99.90;;;;;;5109179;27;20287;-64
2021/12/22 05:54:49;;;;;;;1.17;1.17;;;-2.20;99.90;;;;;;5097380;28;20234;-64
2021/12/22 05:57:17;;;;;;;2.15;1.60;;;-2.20;99.90;;;;;;5100705;27;20576;-65
2021/12/22 05:59:44;;;;;;;4.22;1.40;;;-2.20;99.90;;;;;;5099805;28;20403;-66
2021/12/22 06:02:11;;;;;;;3.35;1.60;;;-2.20;99.90;;;;;;5102523;28;20252;-64
2021/12/22 06:04:37;;;;;;;5.45;3.45;;;-2.20;99.90;;;;;;5102163;27;20662;-65
2021/12/22 06:07:04;;;;;;;1.85;1.65;;;-2.10;99.90;;;;;;5090449;28;20203;-63
2021/12/22 06:09:31;;;;;;;3.00;1.83;;;-2.10;99.90;;;;;;5091446;28;20661;-63
2021/12/22 06:11:58;;;;;;;3.88;3.53;;;-2.20;99.90;;;;;;5101944;28;20756;-66
2021/12/22 06:14:26;;;;;;;2.35;2.15;;;-2.20;99.90;;;;;;5112788;27;20222;-66
2021/12/22 06:16:52;;;;;;;3.47;3.13;;;-2.20;99.90;;;;;;5097814;28;20206;-66
2021/12/22 06:19:20;;;;;;;3.03;2.83;;;-2.20;99.90;;;;;;5102816;27;20207;-66
2021/12/22 06:21:47;;;;;;;2.15;1.50;;;-2.20;99.90;;;;;;5106331;27;20415;-68
2021/12/22 06:24:14;;;;;;;3.50;3.20;;;-2.20;99.90;;;;;;5102175;28;20230;-66
2021/12/22 06:26:40;;;;;;;5.07;3.47;;;-2.20;99.90;;;;;;5107954;28;20203;-67
2021/12/22 06:29:07;;;;;;;2.20;2.00;;;-2.20;99.90;;;;;;5100094;27;20252;-66
2021/12/22 06:31:35;;;;;;;2.70;1.92;;;-2.20;99.90;;;;;;5101582;28;20538;-67
2021/12/22 06:34:03;;;;;;;4.88;3.35;;;-2.20;99.90;;;;;;5094485;28;20610;-66
2021/12/22 06:36:29;;;;;;;3.03;1.83;;;-2.20;99.90;;;;;;5097910;28;20670;-65
2021/12/22 06:38:56;;;;;;;2.60;2.50;;;-2.30;99.90;;;;;;5101169;28;20206;-65
2021/12/22 06:41:23;;;;;;;3.92;2.25;;;-2.30;99.90;;;;;;5101139;27;20298;-65
2021/12/22 06:43:50;;;;;;;3.33;2.97;;;-2.30;99.90;;;;;;5100734;28;20710;-65
2021/12/22 06:46:16;;;;;;;2.25;2.03;;;-2.30;99.90;;;;;;5098577;28;20652;-65
2021/12/22 06:48:44;;;;;;;2.17;1.85;;;-2.30;99.90;;;;;;5104047;28;20207;-65
2021/12/22 06:51:11;;;;;;;3.20;1.95;;;-2.30;99.90;;;;;;5093909;28;20264;-66
2021/12/22 06:53:37;;;;;;;3.85;2.30;;;-2.30;99.90;;;;;;5103261;28;20223;-65
2021/12/22 06:56:05;;;;;;;2.20;2.00;;;-2.30;99.90;;;;;;5092561;28;20203;-65
2021/12/22 06:58:32;;;;;;;2.53;1.77;;;-2.30;99.90;;;;;;5096693;28;20214;-66
2021/12/22 07:01:00;;;;;;;2.53;2.28;;;-2.30;99.90;;;;;;5101255;28;20597;-66
2021/12/22 07:03:27;;;;;;;2.05;1.95;;;-2.30;99.90;;;;;;5089559;28;20213;-66
2021/12/22 07:05:55;;;;;;;3.47;2.65;;;-2.30;99.90;;;;;;5092162;28;20202;-66
2021/12/22 07:08:22;;;;;;;5.35;3.55;;;-2.40;99.90;;;;;;5088736;28;20207;-66
2021/12/22 07:10:49;;;;;;;2.13;1.92;;;-2.40;99.90;;;;;;5091219;28;20387;-67
2021/12/22 07:13:16;;;;;;;2.17;1.98;;;-2.40;99.90;;;;;;5089333;28;20424;-66
2021/12/22 07:15:43;;;;;;;5.25;3.22;;;-2.40;99.90;;;;;;5087514;28;20221;-66
2021/12/22 07:18:12;;;;;;;2.05;1.95;;;-2.40;99.90;;;;;;5093339;28;20742;-66
2021/12/22 07:20:38;;;;;;;1.80;1.65;;;-2.40;99.90;;;;;;5094828;28;20298;-66
2021/12/22 07:23:06;;;;;;;2.85;2.38;;;-2.40;99.90;;;;;;5099680;28;20196;-69
2021/12/22 07:25:33;;;;;;;3.15;2.95;;;-2.40;99.90;;;;;;5092963;28;20485;-66
2021/12/22 07:28:00;;;;;;;3.58;3.30;;;-2.40;99.90;;;;;;5089875;28;20202;-64
2021/12/22 07:30:27;;;;;;;2.55;2.35;;;-2.40;99.90;;;;;;5088649;28;20247;-65
2021/12/22 07:32:53;;;;;;;2.85;2.38;;;-2.50;99.90;;;;;;5099347;28;20219;-66
2021/12/22 07:35:29;;;;;;;3.60;3.30;;;-2.50;99.90;;;;;;5108343;28;20282;-64
2021/12/22 07:38:02;;;;;;;3.50;1.90;;;-2.50;99.90;;;;;;5098173;28;20245;-64
2021/12/22 07:40:30;;;;;;;2.85;2.65;;;-2.50;99.90;;;;;;5104239;28;20213;-65
2021/12/22 07:42:57;;;;;;;3.42;3.13;;;-2.50;99.90;;;;;;5098771;28;20269;-65
2021/12/22 07:45:24;;;;;;;4.70;4.38;;;-2.40;99.90;;;;;;5100480;28;20227;-66
2021/12/22 07:47:50;;;;;;;3.38;3.28;;;-2.50;99.90;;;;;;5100082;28;20236;-66
2021/12/22 07:50:17;;;;;;;2.83;2.47;;;-2.40;99.90;;;;;;5099110;28;20207;-65
2021/12/22 07:52:44;;;;;;;3.72;2.70;;;-2.40;99.90;;;;;;5117075;28;20286;-65
2021/12/22 07:55:10;;;;;;;2.53;2.25;;;-2.40;99.90;;;;;;5118425;28;20219;-65
2021/12/22 07:57:38;;;;;;;3.38;3.08;;;-2.40;99.90;;;;;;5115043;28;20220;-65
2021/12/22 08:00:07;;;;;;;2.53;2.33;;;-2.30;99.90;;;;;;5108439;28;20208;-68
2021/12/22 08:02:36;;;;;;;2.60;2.40;;;-2.30;99.90;;;;;;5111908;27;20192;-66
2021/12/22 08:05:04;;;;;;;6.40;2.45;;;-2.30;99.90;;;;;;5109489;28;20718;-66
2021/12/22 08:07:30;;;;;;;4.15;2.67;;;-2.20;99.90;;;;;;5098737;28;20200;-66
2021/12/22 08:09:59;;;;;;;2.15;1.45;;;-2.20;99.90;;;;;;5101570;28;20730;-65
2021/12/22 08:12:26;;;;;;;2.58;2.38;;;-2.10;99.90;;;;;;5102331;28;20287;-65
2021/12/22 08:14:54;;;;;;;3.03;2.50;;;-2.10;99.90;;;;;;5099697;28;20306;-66
2021/12/22 08:17:21;;;;;;;2.38;2.17;;;-2.00;99.90;;;;;;5099984;28;20249;-66
2021/12/22 08:19:48;;;;;;;2.17;1.83;;;-1.90;99.90;;;;;;5096213;28;20199;-66
2021/12/22 08:22:15;;;;;;;3.67;3.47;;;-1.90;99.90;;;;;;5097338;28;20227;-65
2021/12/22 08:24:42;;;;;;;4.70;3.45;;;-1.80;99.90;;;;;;5106074;27;20340;-65
2021/12/22 08:27:09;;;;;;;6.28;2.80;;;-1.80;99.90;;;;;;5100502;28;20094;-67
2021/12/22 08:29:41;;;;;;;2.95;2.75;;;-1.80;99.90;;;;;;5106212;28;20343;-66
2021/12/22 08:32:09;;;;;;;3.33;3.10;;;-1.80;99.90;;;;;;5098638;27;20322;-66
2021/12/22 08:34:39;;;;;;;3.25;2.30;;;-1.70;99.90;;;;;;5106289;28;20269;-66
2021/12/22 08:39:51;;;;;;;4.70;2.60;;;-1.60;99.90;;;;;;5111889;27;20271;-66
2021/12/22 08:42:18;;;;;;;3.60;2.40;;;-1.60;99.90;;;;;;5116314;27;20378;-65
2021/12/22 08:44:45;;;;;;;2.17;1.98;;;-1.50;99.90;;;;;;5114270;28;20246;-66
2021/12/22 08:47:14;;;;;;;3.03;2.83;;;-1.40;99.90;;;;;;5112976;28;20852;-67
2021/12/22 08:49:41;;;;;;;6.10;3.95;;;-1.40;99.90;;;;;;5107577;28;20215;-66
2021/12/22 08:52:07;;;;;;;6.20;3.00;;;-1.40;99.90;;;;;;5103572;28;20590;-67
2021/12/22 08:54:34;;;;;;;3.50;2.40;;;-1.30;99.90;;;;;;5105356;28;20223;-65
2021/12/22 08:57:01;;;;;;;6.63;3.28;;;-1.20;99.90;;;;;;5107878;28;20271;-66
2021/12/22 08:59:28;;;;;;;3.47;3.17;;;-1.10;99.90;;;;;;5108049;27;20200;-66
2021/12/22 09:01:55;;;;;;;3.90;2.25;;;-1.10;99.90;;;;;;5104268;28;20203;-66
2021/12/22 09:04:24;;;;;;;3.17;2.97;;;-0.90;99.90;;;;;;5100131;27;20229;-69
2021/12/22 09:06:52;;;;;;;3.58;3.10;;;-0.90;99.90;;;;;;5106275;27;20215;-66
2021/12/22 09:09:21;;;;;;;3.67;3.05;;;-0.70;99.90;;;;;;5102556;27;20212;-67
2021/12/22 09:11:48;;;;;;;2.03;1.83;;;-0.60;99.90;;;;;;5105134;27;20204;-66
2021/12/22 09:14:15;;;;;;;2.70;2.50;;;-0.40;99.90;;;;;;5104979;27;20703;-66
2021/12/22 09:16:42;;;;;;;4.05;3.65;;;-0.40;99.90;;;;;;5104804;28;20261;-67
2021/12/22 09:19:10;;;;;;;2.95;2.75;;;-0.30;99.90;;;;;;5104352;28;20200;-67
2021/12/22 09:21:39;;;;;;;5.22;3.13;;;-0.30;99.90;;;;;;5102046;28;20208;-67
2021/12/22 09:24:06;;;;;;;3.20;2.90;;;-0.10;99.90;;;;;;5103703;27;20220;-67
2021/12/22 09:26:33;;;;;;;3.40;2.95;;;0.00;99.90;;;;;;5096720;28;20834;-67
2021/12/22 09:29:01;;;;;;;2.97;2.67;;;0.20;99.90;;;;;;5105465;27;20257;-65
2021/12/22 09:31:28;;;;;;;6.72;3.75;;;0.30;99.90;;;;;;5105388;28;20719;-68
2021/12/22 09:33:55;;;;;;;3.50;3.20;;;0.30;99.90;;;;;;5104410;27;20230;-69
2021/12/22 09:36:22;;;;;;;4.10;3.50;;;0.30;99.90;;;;;;5100459;27;20215;-66
2021/12/22 09:38:50;;;;;;;4.25;3.60;;;0.30;99.90;;;;;;5102176;27;20275;-66
2021/12/22 09:41:17;;;;;;;4.70;4.30;;;0.40;99.90;;;;;;5104570;27;20835;-67
2021/12/22 09:43:44;;;;;;;4.15;3.30;;;0.50;99.90;;;;;;5105813;27;20215;-67
2021/12/22 09:46:15;;;;;;;2.38;2.17;;;0.50;99.90;;;;;;5099468;28;20293;-67
2021/12/22 09:48:51;;;;;;;4.22;3.10;;;0.60;99.90;;;;;;5103490;28;20219;-69
2021/12/22 09:54:08;;;;;;;3.80;3.45;;;0.70;99.90;;;;;;5106796;27;20463;-69
2021/12/22 09:56:35;;;;;;;6.13;4.10;;;0.70;99.90;;;;;;5108661;28;20200;-67
2021/12/22 09:59:02;;;;;;;5.53;5.13;;;0.90;99.90;;;;;;5114541;27;20494;-67
2021/12/22 10:01:29;;;;;;;3.45;3.15;;;1.10;99.90;;;;;;5113439;28;20208;-67
2021/12/22 10:03:59;;;;;;;3.72;3.42;;;1.30;99.90;;;;;;5102190;27;20285;-67
2021/12/22 10:06:26;;;;;;;14.85;3.85;;;1.50;99.90;;;;;;5105058;27;20683;-67
2021/12/22 10:08:54;;;;;;;7.75;3.35;;;1.60;99.90;;;;;;5102376;27;20204;-67
2021/12/22 10:11:22;;;;;;;4.32;4.03;;;1.60;99.90;;;;;;5101889;27;20418;-68
2021/12/22 10:13:49;;;;;;;5.65;2.72;;;1.70;99.90;;;;;;5103320;27;20220;-68
2021/12/22 10:16:19;;;;;;;4.40;4.10;;;1.80;99.90;;;;;;5105365;27;20309;-67
2021/12/22 10:18:47;;;;;;;4.60;4.20;;;1.90;99.90;;;;;;5103740;27;20206;-69
2021/12/22 10:21:16;;;;;;;3.85;3.42;;;1.90;99.90;;;;;;5105935;28;20204;-67
2021/12/22 10:23:46;;;;;;;5.25;3.42;;;2.10;99.90;;;;;;5108524;27;20745;-68
2021/12/22 10:26:16;;;;;;;2.58;2.38;;;2.10;99.90;;;;;;5095082;28;20695;-69
2021/12/22 10:28:50;;;;;;;2.95;2.72;;;2.10;99.90;;;;;;5100585;28;20661;-67
2021/12/22 10:31:18;;;;;;;5.20;4.32;;;2.20;99.90;;;;;;5094100;27;20277;-69
2021/12/22 10:33:45;;;;;;;5.35;3.65;;;2.30;99.90;;;;;;5094411;28;20216;-68
2021/12/22 10:36:14;;;;;;;3.13;2.88;;;2.30;99.90;;;;;;5103136;27;20263;-69
2021/12/22 10:38:47;;;;;;;4.60;4.20;;;2.30;99.90;;;;;;5104797;28;20255;-68
2021/12/22 10:41:14;;;;;;;7.57;3.78;;;2.30;99.90;;;;;;5104946;28;20198;-67
2021/12/22 10:43:44;;;;;;;4.32;3.65;;;2.40;99.90;;;;;;5094528;28;20229;-67
2021/12/22 10:46:15;;;;;;;3.88;3.58;;;2.40;99.90;;;;;;5101289;28;20209;-67
2021/12/22 10:51:30;;;;;;;3.58;2.88;;;2.60;99.90;;;;;;5097623;28;20620;-67
2021/12/22 10:53:59;;;;;;;4.35;3.95;;;2.60;99.90;;;;;;5106489;28;20283;-66
2021/12/22 10:56:29;;;;;;;4.80;4.40;;;2.80;99.90;;;;;;5112126;27;20292;-67
2021/12/22 10:59:01;;;;;;;3.97;3.58;;;2.90;99.90;;;;;;5100563;27;20291;-66
2021/12/22 11:01:29;;;;;;;2.97;2.67;;;3.00;99.90;;;;;;5098032;27;20241;-68
2021/12/22 11:04:03;;;;;;;2.60;2.40;;;3.10;99.90;;;;;;5100756;28;20313;-67
2021/12/22 11:06:31;;;;;;;4.53;2.15;;;3.20;99.90;;;;;;5101128;28;20217;-67
2021/12/22 11:09:01;;;;;;;4.47;3.90;;;3.20;99.90;;;;;;5104487;27;20199;-68
2021/12/22 11:11:33;;;;;;;8.95;3.67;;;3.20;99.90;;;;;;5099178;27;20257;-68
2021/12/22 11:14:12;;;;;;;8.13;6.13;;;3.20;99.90;;;;;;5098979;27;20258;-68
2021/12/22 11:17:04;;;;;;;3.28;2.97;;;3.20;99.90;;;;;;5095260;28;20646;-67
2021/12/22 11:19:33;;;;;;;4.78;3.83;;;3.30;99.90;;;;;;5102391;28;20194;-72
2021/12/22 11:22:05;;;;;;;4.20;3.80;;;3.30;99.90;;;;;;5095291;27;20201;-68
2021/12/22 11:24:34;;;;;;;3.72;3.42;;;3.40;99.90;;;;;;5097089;28;20596;-67
2021/12/22 11:27:02;;;;;;;6.72;3.03;;;3.50;99.90;;;;;;5094168;28;20279;-68
2021/12/22 11:29:29;;;;;;;4.43;4.07;;;3.60;99.90;;;;;;5099563;28;20630;-67
2021/12/22 11:31:56;;;;;;;7.03;3.03;;;3.60;99.90;;;;;;5093377;28;20208;-67
2021/12/22 11:34:27;;;;;;;3.38;3.15;;;3.60;99.90;;;;;;5097202;27;20226;-67
2021/12/22 11:36:56;;;;;;;4.05;3.45;;;3.60;99.90;;;;;;5096790;28;20202;-68
2021/12/22 11:39:24;;;;;;;4.85;4.20;;;3.50;99.90;;;;;;5100710;28;20241;-68
2021/12/22 11:41:57;;;;;;;4.75;4.35;;;3.50;99.90;;;;;;5095087;28;20213;-68
2021/12/22 11:44:25;;;;;;;4.75;3.42;;;3.50;99.90;;;;;;5086495;28;20274;-68
2021/12/22 11:46:54;;;;;;;4.63;3.75;;;3.50;99.90;;;;;;5089892;28;20272;-67
2021/12/22 11:49:21;;;;;;;5.82;3.50;;;3.50;99.90;;;;;;5091546;28;20205;-68
2021/12/22 11:51:50;;;;;;;4.15;3.63;;;3.50;99.90;;;;;;5095201;28;20253;-68
2021/12/22 11:54:18;;;;;;;5.43;3.67;;;3.60;99.90;;;;;;5099961;28;20229;-70
2021/12/22 11:56:47;;;;;;;3.40;2.95;;;3.70;99.90;;;;;;5103794;27;20203;-69
2021/12/22 11:59:33;;;;;;;5.32;4.05;;;3.80;99.90;;;;;;5109160;28;20230;-69
2021/12/22 12:02:19;;;;;;;3.00;2.80;;;3.80;99.90;;;;;;5097335;28;20279;-72
2021/12/22 12:04:48;;;;;;;4.30;3.22;;;3.80;99.90;;;;;;5098952;28;20215;-67
2021/12/22 12:10:34;;;;;;;4.65;3.80;;;3.80;99.90;;;;;;5102427;27;20451;-67
2021/12/22 12:13:06;;;;;;;8.43;3.80;;;4.00;99.90;;;;;;5072650;28;20206;-67
2021/12/22 12:22:11;;;;;;;3.35;3.05;;;4.10;99.90;;;;;;5068502;28;20249;-69
2021/12/22 12:25:09;;;;;;;9.20;4.07;;;4.10;99.90;;;;;;5064068;28;20224;-69
2021/12/22 12:27:43;;;;;;;5.82;4.18;;;4.20;99.90;;;;;;5070408;28;20206;-69
2021/12/22 12:30:17;;;;;;;3.70;2.88;;;4.20;99.90;;;;;;5073095;28;20705;-69
2021/12/22 12:33:07;;;;;;;3.08;2.88;;;4.30;99.90;;;;;;5068679;28;20216;-71
2021/12/22 12:35:50;;;;;;;3.60;3.30;;;4.40;99.90;;;;;;5072373;28;20338;-68
2021/12/22 12:38:18;;;;;;;5.03;4.50;;;4.40;99.90;;;;;;5074255;28;20201;-68
2021/12/22 12:41:17;;;;;;;2.67;2.45;;;4.50;99.90;;;;;;5072206;28;20204;-68
2021/12/22 12:44:04;;;;;;;5.40;4.30;;;4.60;99.90;;;;;;5070404;28;20292;-67
2021/12/22 12:46:46;;;;;;;4.30;3.85;;;4.70;99.90;;;;;;5071941;28;20205;-68
2021/12/22 12:49:34;;;;;;;4.47;3.97;;;4.70;99.90;;;;;;5074390;28;20320;-68
2021/12/22 12:52:07;;;;;;;3.45;3.15;;;4.90;99.90;;;;;;5070119;28;20615;-68
2021/12/22 12:54:39;;;;;;;4.95;4.43;;;5.00;99.90;;;;;;5070446;28;20282;-69
2021/12/22 12:57:27;;;;;;;4.30;3.75;;;5.10;99.90;;;;;;5083732;28;20218;-68
2021/12/22 13:00:02;;;;;;;5.05;3.72;;;5.10;99.90;;;;;;5065898;28;20200;-68
2021/12/22 13:02:31;;;;;;;4.03;3.40;;;5.10;99.90;;;;;;5067833;28;20263;-68
2021/12/22 13:05:00;;;;;;;4.63;4.20;;;5.00;99.90;;;;;;5066813;28;20229;-68
2021/12/22 13:07:27;;;;;;;5.80;4.78;;;4.90;99.90;;;;;;5072649;28;20211;-68
2021/12/22 13:10:02;;;;;;;5.68;4.82;;;4.90;99.90;;;;;;5074387;28;20225;-68
2021/12/22 13:12:36;;;;;;;6.55;4.30;;;4.90;99.90;;;;;;5081659;28;20209;-68
2021/12/22 13:17:54;;;;;;;5.28;4.45;;;4.80;99.90;;;;;;5073107;28;20416;-68
2021/12/22 13:20:27;;;;;;;4.57;4.18;;;4.80;99.90;;;;;;5059618;28;20218;-68
2021/12/22 13:22:56;;;;;;;5.97;5.22;;;4.80;99.90;;;;;;5065520;28;20206;-68
2021/12/22 13:25:25;;;;;;;8.55;5.13;;;4.80;99.90;;;;;;5058641;28;20237;-68
2021/12/22 13:27:53;;;;;;;6.20;4.07;;;4.80;99.90;;;;;;5052346;28;20207;-68